Time;durP1;ratioP1;P1;durP2;ratioP2;P2;SDS_P1;SDS_P2;PMS_P1;PMS_P2;Temp;Humidity;BMP_temperature;BMP_pressure;BME280_temperature;BME280_humidity;BME280_pressure;Samples;Min_cycle;Max_cycle;Signal;HPM_P1;HPM_P2
2023/06/15 00:01:04;;;;;;;;;0.00;0.00;;;;;-146.67;100.00;57155.34;5024593;28;8869;-83
2023/06/15 00:03:30;;;;;;;;;0.00;0.00;;;;;-146.67;100.00;57155.34;5024901;28;8791;-83
2023/06/15 00:05:56;;;;;;;;;0.00;0.00;;;;;-146.67;100.00;57155.34;5042620;28;8779;-84
2023/06/15 00:08:21;;;;;;;;;0.00;0.00;;;;;-146.67;100.00;57155.34;5042427;28;8815;-83
2023/06/15 00:10:47;;;;;;;;;0.00;0.00;;;;;-146.67;100.00;57155.34;5024969;28;8858;-83
2023/06/15 00:13:13;;;;;;;;;0.00;0.00;;;;;-146.67;100.00;57155.34;5043000;28;8791;-83
2023/06/15 00:15:39;;;;;;;;;0.00;0.00;;;;;-146.67;100.00;57155.34;5024606;28;9925;-83
2023/06/15 00:18:05;;;;;;;;;0.00;0.00;;;;;-146.67;100.00;57155.34;5043201;28;9011;-83
2023/06/15 00:20:31;;;;;;;;;0.00;0.00;;;;;-146.67;100.00;57155.34;5035084;28;8746;-83
2023/06/15 00:22:58;;;;;;;;;0.00;0.00;;;;;-146.67;100.00;57155.34;5043046;28;8727;-83
2023/06/15 00:25:24;;;;;;;;;0.00;0.00;;;;;-146.67;100.00;57155.34;5042609;28;8896;-83
2023/06/15 00:27:49;;;;;;;;;0.00;0.00;;;;;-146.67;100.00;57155.34;5041507;28;9521;-83
2023/06/15 00:30:15;;;;;;;;;0.00;0.00;;;;;-146.67;100.00;57155.34;5034826;28;8854;-83
2023/06/15 00:32:40;;;;;;;;;0.00;0.00;;;;;-146.67;100.00;57155.34;5028134;28;8825;-83
2023/06/15 00:35:07;;;;;;;;;0.00;0.00;;;;;-146.67;100.00;57155.34;5028087;28;10970;-83
2023/06/15 00:37:32;;;;;;;;;0.00;0.00;;;;;-146.67;100.00;57155.34;5045981;28;8775;-83
2023/06/15 00:39:58;;;;;;;;;0.00;0.00;;;;;-146.67;100.00;57155.34;5027592;28;8873;-83
2023/06/15 00:42:23;;;;;;;;;0.00;0.00;;;;;-146.67;100.00;57155.34;5046408;28;8819;-83
2023/06/15 00:44:48;;;;;;;;;0.00;0.00;;;;;-146.67;100.00;57155.34;5041027;28;10076;-83
2023/06/15 00:47:20;;;;;;;;;0.00;0.00;;;;;-146.67;100.00;57155.34;5044451;28;8837;-83
2023/06/15 00:49:46;;;;;;;;;0.00;0.00;;;;;-146.67;100.00;57155.34;5045413;28;8727;-83
2023/06/15 00:52:14;;;;;;;;;0.00;0.00;;;;;-146.67;100.00;57155.34;5044807;28;9313;-83
2023/06/15 00:54:40;;;;;;;;;0.00;0.00;;;;;-146.67;100.00;57155.34;5044419;28;10517;-83
2023/06/15 00:57:08;;;;;;;;;0.00;0.00;;;;;-146.67;100.00;57155.34;5028767;28;8833;-82
2023/06/15 00:59:34;;;;;;;;;0.00;0.00;;;;;-146.67;100.00;57155.34;5027698;28;8819;-83
2023/06/15 01:02:00;;;;;;;;;0.00;0.00;;;;;-146.67;100.00;57155.34;5027084;28;8829;-83
2023/06/15 01:04:25;;;;;;;;;0.00;0.00;;;;;-146.67;100.00;57155.34;5045453;28;8807;-83
2023/06/15 01:06:56;;;;;;;;;0.00;0.00;;;;;-146.67;100.00;57155.34;5027245;28;8815;-83
2023/06/15 01:09:22;;;;;;;;;0.00;0.00;;;;;-146.67;100.00;57155.34;5044914;28;8783;-84
2023/06/15 01:11:52;;;;;;;;;0.00;0.00;;;;;-146.67;100.00;57155.34;5026927;28;8799;-83
2023/06/15 01:14:20;;;;;;;;;0.00;0.00;;;;;-146.67;100.00;57155.34;5027418;28;10825;-83
2023/06/15 01:16:52;;;;;;;;;0.00;0.00;;;;;-146.67;100.00;57155.34;5044444;28;8802;-83
2023/06/15 01:19:35;;;;;;;;;0.00;0.00;;;;;-146.67;100.00;57155.34;5027785;28;8778;-83
2023/06/15 01:22:14;;;;;;;;;0.00;0.00;;;;;-146.67;100.00;57155.34;5027146;28;8782;-83
2023/06/15 01:24:50;;;;;;;;;0.00;0.00;;;;;-146.67;100.00;57155.34;5027174;28;10023;-83
2023/06/15 01:27:18;;;;;;;;;0.00;0.00;;;;;-146.67;100.00;57155.34;5045592;28;8791;-83
2023/06/15 01:29:44;;;;;;;;;0.00;0.00;;;;;-146.67;100.00;57155.34;5045531;28;8775;-83
2023/06/15 01:32:10;;;;;;;;;0.00;0.00;;;;;-146.67;100.00;57155.34;5044640;28;8818;-83
2023/06/15 01:34:36;;;;;;;;;0.00;0.00;;;;;-146.67;100.00;57155.34;5027310;28;9857;-82
2023/06/15 01:37:02;;;;;;;;;0.00;0.00;;;;;-146.67;100.00;57155.34;5027442;28;8799;-83
2023/06/15 01:39:28;;;;;;;;;0.00;0.00;;;;;-146.67;100.00;57155.34;5044713;28;8809;-83
2023/06/15 01:41:54;;;;;;;;;0.00;0.00;;;;;-146.67;100.00;57155.34;5043494;28;9713;-83
2023/06/15 01:44:20;;;;;;;;;0.00;0.00;;;;;-146.67;100.00;57155.34;5027551;28;10192;-83
2023/06/15 01:46:46;;;;;;;;;0.00;0.00;;;;;-146.67;100.00;57155.34;5044095;28;8799;-83
2023/06/15 01:49:12;;;;;;;;;0.00;0.00;;;;;-146.67;100.00;57155.34;5045127;28;8740;-83
2023/06/15 01:51:37;;;;;;;;;0.00;0.00;;;;;-146.67;100.00;57155.34;5027073;28;8818;-83
2023/06/15 01:54:03;;;;;;;;;0.00;0.00;;;;;-146.67;100.00;57155.34;5026695;28;9857;-83
2023/06/15 01:56:28;;;;;;;;;0.00;0.00;;;;;-146.67;100.00;57155.34;5027188;28;8815;-83
2023/06/15 01:58:54;;;;;;;;;0.00;0.00;;;;;-146.67;100.00;57155.34;5026733;28;8818;-83
2023/06/15 02:01:19;;;;;;;;;2.33;2.33;;;;;-146.67;100.00;57155.34;5044199;28;8806;-83
2023/06/15 02:03:45;;;;;;;;;0.00;0.00;;;;;-146.67;100.00;57155.34;5027201;28;9962;-83
2023/06/15 02:06:10;;;;;;;;;0.00;0.00;;;;;-146.67;100.00;57155.34;5026652;28;8931;-83
2023/06/15 02:08:36;;;;;;;;;0.00;0.00;;;;;-146.67;100.00;57155.34;5026357;28;8831;-83
2023/06/15 02:11:01;;;;;;;;;0.00;0.00;;;;;-146.67;100.00;57155.34;5026803;28;8814;-83
2023/06/15 02:13:27;;;;;;;;;0.00;0.00;;;;;-146.67;100.00;57155.34;5044894;28;8787;-83
2023/06/15 02:15:52;;;;;;;;;0.00;0.00;;;;;-146.67;100.00;57155.34;5022862;28;8830;-83
2023/06/15 02:18:18;;;;;;;;;0.00;0.00;;;;;-146.67;100.00;57155.34;5024690;28;8809;-83
2023/06/15 02:20:44;;;;;;;;;0.00;0.00;;;;;-146.67;100.00;57155.34;5007085;28;8797;-83
2023/06/15 02:23:10;;;;;;;;;0.00;0.00;;;;;-146.67;100.00;57155.34;5024784;28;8813;-83
2023/06/15 02:25:36;;;;;;;;;0.00;0.00;;;;;-146.67;100.00;57155.34;5007118;28;8805;-83
2023/06/15 02:28:01;;;;;;;;;0.00;0.00;;;;;-146.67;100.00;57155.34;5024452;28;8818;-83
2023/06/15 02:30:27;;;;;;;;;0.00;0.00;;;;;-146.67;100.00;57155.34;5006291;28;8845;-83
2023/06/15 02:32:53;;;;;;;;;0.00;0.00;;;;;-146.67;100.00;57155.34;5024625;28;8798;-83
2023/06/15 02:35:19;;;;;;;;;0.00;0.00;;;;;-146.67;100.00;57155.34;5024353;28;8722;-83
2023/06/15 02:37:45;;;;;;;;;0.00;0.00;;;;;-146.67;100.00;57155.34;5023446;28;8844;-83
2023/06/15 02:40:11;;;;;;;;;0.00;0.00;;;;;-146.67;100.00;57155.34;5005372;28;8856;-83
2023/06/15 02:42:38;;;;;;;;;0.00;0.00;;;;;-146.67;100.00;57155.34;5024466;28;8754;-83
2023/06/15 02:45:07;;;;;;;;;0.00;0.00;;;;;-146.67;100.00;57155.34;5005981;28;8765;-83
2023/06/15 02:47:37;;;;;;;;;0.00;0.00;;;;;-146.67;100.00;57155.34;5024412;28;8758;-83
2023/06/15 02:50:06;;;;;;;;;0.00;0.00;;;;;-146.67;100.00;57155.34;5033760;28;8756;-83
2023/06/15 02:52:32;;;;;;;;;0.00;0.00;;;;;-146.67;100.00;57155.34;5042209;28;11087;-83
2023/06/15 02:55:00;;;;;;;;;0.00;0.00;;;;;-146.67;100.00;57155.34;5042878;28;8816;-83
2023/06/15 02:57:26;;;;;;;;;0.00;0.00;;;;;-146.67;100.00;57155.34;5059260;28;9772;-83
2023/06/15 02:59:52;;;;;;;;;0.00;0.00;;;;;-146.67;100.00;57155.34;5043489;28;8770;-83
2023/06/15 03:02:20;;;;;;;;;0.00;0.00;;;;;-146.67;100.00;57155.34;5025508;28;10005;-83
2023/06/15 03:04:48;;;;;;;;;0.00;0.00;;;;;-146.67;100.00;57155.34;5026054;28;8811;-83
2023/06/15 03:07:16;;;;;;;;;0.00;0.00;;;;;-146.67;100.00;57155.34;5025901;28;8779;-83
2023/06/15 03:09:44;;;;;;;;;0.00;0.00;;;;;-146.67;100.00;57155.34;5025471;28;8865;-83
2023/06/15 03:12:10;;;;;;;;;0.00;0.00;;;;;-146.67;100.00;57155.34;5026032;28;10243;-83
2023/06/15 03:14:36;;;;;;;;;0.00;0.00;;;;;-146.67;100.00;57155.34;5043563;28;8807;-83
2023/06/15 03:17:02;;;;;;;;;0.00;0.00;;;;;-146.67;100.00;57155.34;5025775;28;8740;-83
2023/06/15 03:19:27;;;;;;;;;0.00;0.00;;;;;-146.67;100.00;57155.34;5043529;28;8841;-83
2023/06/15 03:21:53;;;;;;;;;0.00;0.00;;;;;-146.67;100.00;57155.34;5025449;28;10004;-83
2023/06/15 03:24:20;;;;;;;;;0.00;0.00;;;;;-146.67;100.00;57155.34;5043421;28;8739;-83
2023/06/15 03:26:47;;;;;;;;;0.00;0.00;;;;;-146.67;100.00;57155.34;5042155;28;8752;-83
2023/06/15 03:29:13;;;;;;;;;0.00;0.00;;;;;-146.67;100.00;57155.34;5043248;28;8804;-82
2023/06/15 03:31:40;;;;;;;;;0.00;0.00;;;;;-146.67;100.00;57155.34;5043160;28;8786;-82
2023/06/15 03:34:10;;;;;;;;;0.00;0.00;;;;;-146.67;100.00;57155.34;5043637;28;8741;-82
2023/06/15 03:36:36;;;;;;;;;0.00;0.00;;;;;-146.67;100.00;57155.34;5043673;28;8765;-83
2023/06/15 03:39:02;;;;;;;;;3.00;3.00;;;;;-146.67;100.00;57155.34;5058241;28;8798;-83
2023/06/15 03:41:29;;;;;;;;;0.00;0.00;;;;;-146.67;100.00;57155.34;5042256;28;8817;-83
2023/06/15 03:43:55;;;;;;;;;0.00;0.00;;;;;-146.67;100.00;57155.34;5017280;28;8785;-83
2023/06/15 03:46:20;;;;;;;;;0.00;0.00;;;;;-146.67;100.00;57155.34;5021721;28;8825;-83
2023/06/15 03:48:46;;;;;;;;;0.00;0.00;;;;;-146.67;100.00;57155.34;5003785;28;8849;-83
2023/06/15 03:51:12;;;;;;;;;0.00;0.00;;;;;-146.67;100.00;57155.34;5022269;28;8898;-83
2023/06/15 03:53:41;;;;;;;;;0.00;0.00;;;;;-146.67;100.00;57155.34;5013690;28;9149;-83
2023/06/15 03:56:06;;;;;;;;;0.00;0.00;;;;;-146.67;100.00;57155.34;5041083;28;8790;-83
2023/06/15 03:58:32;;;;;;;;;0.00;0.00;;;;;-146.67;100.00;57155.34;5041169;28;8824;-83
2023/06/15 04:00:57;;;;;;;;;0.00;0.00;;;;;-146.67;100.00;57155.34;5023862;28;10049;-83
2023/06/15 04:03:23;;;;;;;;;0.00;0.00;;;;;-146.67;100.00;57155.34;5024217;28;8827;-83
2023/06/15 04:05:49;;;;;;;;;0.00;0.00;;;;;-146.67;100.00;57155.34;5024715;28;8818;-82
2023/06/15 04:08:14;;;;;;;;;0.00;0.00;;;;;-146.67;100.00;57155.34;5024830;28;8799;-83
2023/06/15 04:10:39;;;;;;;;;0.00;0.00;;;;;-146.67;100.00;57155.34;5042247;28;8818;-82
2023/06/15 04:13:05;;;;;;;;;0.00;0.00;;;;;-146.67;100.00;57155.34;5041282;28;8839;-83
2023/06/15 04:15:31;;;;;;;;;0.00;0.00;;;;;-146.67;100.00;57155.34;5024243;28;8937;-83
2023/06/15 04:17:57;;;;;;;;;0.00;0.00;;;;;-146.67;100.00;57155.34;5024725;28;8795;-83
2023/06/15 04:20:22;;;;;;;;;0.00;0.00;;;;;-146.67;100.00;57155.34;5024661;28;10015;-83
2023/06/15 04:22:48;;;;;;;;;0.00;0.00;;;;;-146.67;100.00;57155.34;5042377;28;8901;-83
2023/06/15 04:25:13;;;;;;;;;0.00;0.00;;;;;-146.67;100.00;57155.34;5040846;28;9546;-83
2023/06/15 04:27:39;;;;;;;;;0.00;0.00;;;;;-146.67;100.00;57155.34;5024469;28;8873;-83
2023/06/15 04:30:07;;;;;;;;;0.00;0.00;;;;;-146.67;100.00;57155.34;5042269;28;8984;-83
2023/06/15 04:32:36;;;;;;;;;0.00;0.00;;;;;-146.67;100.00;57155.34;5040781;28;8833;-83
2023/06/15 04:35:03;;;;;;;;;0.00;0.00;;;;;-146.67;100.00;57155.34;5024649;28;8755;-83
2023/06/15 04:37:29;;;;;;;;;0.00;0.00;;;;;-146.67;100.00;57155.34;5024573;28;8913;-83
2023/06/15 04:39:59;;;;;;;;;0.00;0.00;;;;;-146.67;100.00;57155.34;5023341;28;10099;-83
2023/06/15 04:42:26;;;;;;;;;0.00;0.00;;;;;-146.67;100.00;57155.34;5040861;28;8822;-83
2023/06/15 04:44:52;;;;;;;;;0.00;0.00;;;;;-146.67;100.00;57155.34;5024121;28;8918;-83
2023/06/15 04:47:18;;;;;;;;;0.00;0.00;;;;;-146.67;100.00;57155.34;5024136;28;8811;-83
2023/06/15 04:49:44;;;;;;;;;0.00;0.00;;;;;-146.67;100.00;57155.34;5041916;28;8922;-83
2023/06/15 04:52:10;;;;;;;;;0.00;0.00;;;;;-146.67;100.00;57155.34;5034890;28;8811;-83
2023/06/15 04:54:36;;;;;;;;;0.00;0.00;;;;;-146.67;100.00;57155.34;5041725;28;8747;-83
2023/06/15 04:57:01;;;;;;;;;0.00;0.00;;;;;-146.67;100.00;57155.34;5024283;28;8802;-83
2023/06/15 04:59:27;;;;;;;;;0.00;0.00;;;;;-146.67;100.00;57155.34;5023831;28;9903;-83
2023/06/15 05:01:52;;;;;;;;;0.00;0.00;;;;;-146.67;100.00;57155.34;5040625;28;8823;-83
2023/06/15 05:04:20;;;;;;;;;0.00;0.00;;;;;-146.67;100.00;57155.34;5024175;28;9389;-83
2023/06/15 05:06:46;;;;;;;;;0.00;0.00;;;;;-146.67;100.00;57155.34;5041267;28;8810;-83
2023/06/15 05:09:16;;;;;;;;;0.00;0.00;;;;;-146.67;100.00;57155.34;5023317;28;9957;-81
2023/06/15 05:11:42;;;;;;;;;0.00;0.00;;;;;-146.67;100.00;57155.34;5042114;28;8925;-81
2023/06/15 05:14:07;;;;;;;;;0.00;0.00;;;;;-146.67;100.00;57155.34;5017276;28;8817;-84
2023/06/15 05:16:35;;;;;;;;;0.33;0.33;;;;;-146.67;100.00;57155.34;5007389;28;8825;-84
2023/06/15 05:19:00;;;;;;;;;0.00;0.00;;;;;-146.67;100.00;57155.34;5022868;28;10126;-84
2023/06/15 05:21:26;;;;;;;;;0.00;0.00;;;;;-146.67;100.00;57155.34;5007214;28;8861;-86
2023/06/15 05:23:51;;;;;;;;;0.00;0.00;;;;;-146.67;100.00;57155.34;5008499;28;8821;-85
2023/06/15 05:26:17;;;;;;;;;0.00;0.00;;;;;-146.67;100.00;57155.34;5036455;28;8842;-84
2023/06/15 05:28:42;;;;;;;;;0.00;0.00;;;;;-146.67;100.00;57155.34;5045372;28;9621;-85
2023/06/15 05:31:08;;;;;;;;;0.00;0.00;;;;;-146.67;100.00;57155.34;5027547;28;8875;-85
2023/06/15 05:33:34;;;;;;;;;0.00;0.00;;;;;-146.67;100.00;57155.34;5026991;28;8823;-85
2023/06/15 05:36:00;;;;;;;;;0.00;0.00;;;;;-146.67;100.00;57155.34;5026751;28;8769;-82
2023/06/15 05:38:26;;;;;;;;;0.00;0.00;;;;;-146.67;100.00;57155.34;5043416;28;8846;-83
2023/06/15 05:40:52;;;;;;;;;0.00;0.00;;;;;-146.67;100.00;57155.34;5025562;28;8823;-83
2023/06/15 05:43:19;;;;;;;;;0.00;0.00;;;;;-146.67;100.00;57155.34;5043840;28;8873;-83
2023/06/15 05:45:47;;;;;;;;;0.00;0.00;;;;;-146.67;100.00;57155.34;5024941;28;8792;-85
2023/06/15 05:48:13;;;;;;;;;0.00;0.00;;;;;-146.67;100.00;57155.34;5042631;28;8822;-86
2023/06/15 05:50:38;;;;;;;;;1.00;1.00;;;;;-146.67;100.00;57155.34;5026631;28;8850;-87
2023/06/15 05:53:04;;;;;;;;;0.00;0.00;;;;;-146.67;100.00;57155.34;5044104;28;8826;-82
2023/06/15 05:55:30;;;;;;;;;0.00;0.00;;;;;-146.67;100.00;57155.34;5045062;28;8886;-86
2023/06/15 05:57:55;;;;;;;;;0.00;0.00;;;;;-146.67;100.00;57155.34;5026975;28;9971;-85
2023/06/15 06:00:22;;;;;;;;;0.00;0.00;;;;;-146.67;100.00;57155.34;5042206;28;8815;-84
2023/06/15 06:02:47;;;;;;;;;0.00;0.00;;;;;-146.67;100.00;57155.34;5045001;28;8964;-85
2023/06/15 06:05:13;;;;;;;;;0.00;0.00;;;;;-146.67;100.00;57155.34;5044429;28;8798;-85
2023/06/15 06:07:38;;;;;;;;;0.00;0.00;;;;;-146.67;100.00;57155.34;5026402;28;9935;-86
2023/06/15 06:10:05;;;;;;;;;0.00;0.00;;;;;-146.67;100.00;57155.34;5044010;28;8822;-86
2023/06/15 06:12:30;;;;;;;;;0.00;0.00;;;;;-146.67;100.00;57155.34;5026542;28;8819;-88
2023/06/15 06:14:55;;;;;;;;;0.00;0.00;;;;;-146.67;100.00;57155.34;5027123;28;8842;-90
2023/06/15 06:17:21;;;;;;;;;0.00;0.00;;;;;-146.67;100.00;57155.34;5026288;28;9874;-84
2023/06/15 06:19:48;;;;;;;;;0.00;0.00;;;;;-146.67;100.00;57155.34;5045060;28;8811;-84
2023/06/15 06:22:13;;;;;;;;;0.00;0.00;;;;;-146.67;100.00;57155.34;5025320;28;8755;-85
2023/06/15 06:24:38;;;;;;;;;0.00;0.00;;;;;-146.67;100.00;57155.34;5044598;28;8826;-86
2023/06/15 06:27:04;;;;;;;;;0.00;0.00;;;;;-146.67;100.00;57155.34;5025098;28;11014;-86
2023/06/15 06:29:30;;;;;;;;;0.00;0.00;;;;;-146.67;100.00;57155.34;5042022;28;8806;-84
2023/06/15 06:31:55;;;;;;;;;0.00;0.00;;;;;-146.67;100.00;57155.34;5043354;28;8837;-84
2023/06/15 06:34:20;;;;;;;;;0.00;0.00;;;;;-146.67;100.00;57155.34;5043098;28;8802;-91
2023/06/15 06:36:46;;;;;;;;;0.00;0.00;;;;;-146.67;100.00;57155.34;5029848;28;10113;-86
2023/06/15 06:39:11;;;;;;;;;0.00;0.00;;;;;-146.67;100.00;57155.34;5043851;28;8826;-87
2023/06/15 06:41:36;;;;;;;;;0.00;0.00;;;;;-146.67;100.00;57155.34;5025163;28;8838;-87
2023/06/15 06:44:02;;;;;;;;;0.00;0.00;;;;;-146.67;100.00;57155.34;5026243;28;9093;-87
2023/06/15 06:46:27;;;;;;;;;0.00;0.00;;;;;-146.67;100.00;57155.34;5025441;28;9897;-87
2023/06/15 06:48:53;;;;;;;;;0.00;0.00;;;;;-146.67;100.00;57155.34;5040152;28;8835;-88
2023/06/15 06:51:18;;;;;;;;;0.00;0.00;;;;;-146.67;100.00;57155.34;5042356;28;8924;-86
2023/06/15 06:53:44;;;;;;;;;0.00;0.00;;;;;-146.67;100.00;57155.34;5043989;28;8900;-86
2023/06/15 06:56:09;;;;;;;;;0.00;0.00;;;;;-146.67;100.00;57155.34;5059382;28;9919;-86
2023/06/15 06:58:35;;;;;;;;;0.00;0.00;;;;;-146.67;100.00;57155.34;5042444;28;8809;-85
2023/06/15 07:01:00;;;;;;;;;0.00;0.00;;;;;-146.67;100.00;57155.34;5043689;28;8819;-85
2023/06/15 07:03:25;;;;;;;;;0.00;0.00;;;;;-146.67;100.00;57155.34;5026032;28;8922;-85
2023/06/15 07:05:51;;;;;;;;;0.00;0.00;;;;;-146.67;100.00;57155.34;5043616;28;8821;-85
2023/06/15 07:08:16;;;;;;;;;0.00;0.00;;;;;-146.67;100.00;57155.34;5043678;28;8893;-86
2023/06/15 07:10:42;;;;;;;;;0.00;0.00;;;;;-146.67;100.00;57155.34;5025631;28;9036;-85
2023/06/15 07:13:07;;;;;;;;;0.00;0.00;;;;;-146.67;100.00;57155.34;5026150;28;8855;-85
2023/06/15 07:15:32;;;;;;;;;0.00;0.00;;;;;-146.67;100.00;57155.34;5043215;28;8811;-85
2023/06/15 07:17:58;;;;;;;;;0.00;0.00;;;;;-146.67;100.00;57155.34;5025853;28;8825;-86
2023/06/15 07:20:24;;;;;;;;;0.00;0.00;;;;;-146.67;100.00;57155.34;5025590;28;8802;-86
2023/06/15 07:22:49;;;;;;;;;0.00;0.00;;;;;-146.67;100.00;57155.34;5037821;28;8810;-85
2023/06/15 07:25:15;;;;;;;;;0.00;0.00;;;;;-146.67;100.00;57155.34;5042300;28;9941;-86
2023/06/15 07:27:40;;;;;;;;;0.00;0.00;;;;;-146.67;100.00;57155.34;5043589;28;8829;-86
2023/06/15 07:30:06;;;;;;;;;0.00;0.00;;;;;-146.67;100.00;57155.34;5043579;28;8806;-85
2023/06/15 07:32:32;;;;;;;;;0.00;0.00;;;;;-146.67;100.00;57155.34;5041750;28;8852;-86
2023/06/15 07:34:57;;;;;;;;;0.00;0.00;;;;;-146.67;100.00;57155.34;5043194;28;8786;-86
2023/06/15 07:37:22;;;;;;;;;0.00;0.00;;;;;-146.67;100.00;57155.34;5041890;28;9141;-86
2023/06/15 07:39:48;;;;;;;;;0.00;0.00;;;;;-146.67;100.00;57155.34;5041034;28;8833;-85
2023/06/15 07:42:13;;;;;;;;;0.00;0.00;;;;;-146.67;100.00;57155.34;5043065;28;8848;-85
2023/06/15 07:44:38;;;;;;;;;0.00;0.00;;;;;-146.67;100.00;57155.34;5043172;28;8813;-85
2023/06/15 07:47:06;;;;;;;;;0.00;0.00;;;;;-146.67;100.00;57155.34;5036969;28;8825;-85
2023/06/15 07:49:31;;;;;;;;;0.00;0.00;;;;;-146.67;100.00;57155.34;5043152;28;8751;-85
2023/06/15 07:51:57;;;;;;;;;0.00;0.00;;;;;-146.67;100.00;57155.34;5025131;28;8918;-86
2023/06/15 07:54:22;;;;;;;;;0.00;0.00;;;;;-146.67;100.00;57155.34;5033782;28;9869;-86
2023/06/15 07:56:47;;;;;;;;;0.00;0.00;;;;;-146.67;100.00;57155.34;5041750;28;8836;-85
2023/06/15 07:59:14;;;;;;;;;0.00;0.00;;;;;-146.67;100.00;57155.34;5041520;28;8822;-86
2023/06/15 08:01:39;;;;;;;;;0.00;0.00;;;;;-146.67;100.00;57155.34;5042877;28;8787;-86
2023/06/15 08:04:04;;;;;;;;;0.00;0.00;;;;;-146.67;100.00;57155.34;5042631;28;9526;-86
2023/06/15 08:06:30;;;;;;;;;0.00;0.00;;;;;-146.67;100.00;57155.34;5025232;28;8897;-86
2023/06/15 08:08:56;;;;;;;;;0.00;0.00;;;;;-146.67;100.00;57155.34;5042368;28;9334;-86
2023/06/15 08:11:26;;;;;;;;;0.00;0.00;;;;;-146.67;100.00;57155.34;5041479;28;9545;-85
2023/06/15 08:13:52;;;;;;;;;0.00;0.00;;;;;-146.67;100.00;57155.34;5042817;28;8738;-85
2023/06/15 08:16:17;;;;;;;;;0.00;0.00;;;;;-146.67;100.00;57155.34;5030713;28;8837;-86
2023/06/15 08:18:42;;;;;;;;;0.00;0.00;;;;;-146.67;100.00;57155.34;5022793;28;8816;-86
2023/06/15 08:21:08;;;;;;;;;0.00;0.00;;;;;-146.67;100.00;57155.34;5022892;28;8785;-85
2023/06/15 08:23:33;;;;;;;;;0.00;0.00;;;;;-146.67;100.00;57155.34;5005618;28;9918;-86
2023/06/15 08:25:58;;;;;;;;;0.00;0.00;;;;;-146.67;100.00;57155.34;5005021;28;8810;-85
2023/06/15 08:28:24;;;;;;;;;0.00;0.00;;;;;-146.67;100.00;57155.34;5005265;28;9018;-85
2023/06/15 08:30:49;;;;;;;;;0.00;0.00;;;;;-146.67;100.00;57155.34;5037636;28;8887;-85
2023/06/15 08:33:18;;;;;;;;;0.00;0.00;;;;;-146.67;100.00;57155.34;5040987;28;10104;-85
2023/06/15 08:35:44;;;;;;;;;0.00;0.00;;;;;-146.67;100.00;57155.34;5041401;28;8731;-85
2023/06/15 08:38:09;;;;;;;;;0.00;0.00;;;;;-146.67;100.00;57155.34;5040166;28;9194;-85
2023/06/15 08:40:34;;;;;;;;;0.00;0.00;;;;;-146.67;100.00;57155.34;5041161;28;8837;-85
2023/06/15 08:43:03;;;;;;;;;0.00;0.00;;;;;-146.67;100.00;57155.34;5041260;28;9831;-86
2023/06/15 08:45:37;;;;;;;;;0.00;0.00;;;;;-146.67;100.00;57155.34;5041271;28;8805;-86
2023/06/15 08:48:05;;;;;;;;;0.00;0.00;;;;;-146.67;100.00;57155.34;5040661;28;8809;-87
2023/06/15 08:50:32;;;;;;;;;0.00;0.00;;;;;-146.67;100.00;57155.34;5026303;28;8798;-85
2023/06/15 08:52:58;;;;;;;;;0.00;0.00;;;;;-146.67;100.00;57155.34;5027854;28;10055;-87
2023/06/15 08:55:24;;;;;;;;;0.00;0.00;;;;;-146.67;100.00;57155.34;5028291;28;8807;-86
2023/06/15 08:57:50;;;;;;;;;0.00;0.00;;;;;-146.67;100.00;57155.34;5028207;28;8827;-86
2023/06/15 09:00:16;;;;;;;;;0.00;0.00;;;;;-146.67;100.00;57155.34;5028009;28;8843;-86
2023/06/15 09:02:46;;;;;;;;;0.00;0.00;;;;;-146.67;100.00;57155.34;5027617;28;10028;-86
2023/06/15 09:05:12;;;;;;;;;0.00;0.00;;;;;-146.67;100.00;57155.34;5028280;28;8783;-86
2023/06/15 09:07:37;;;;;;;;;0.00;0.00;;;;;-146.67;100.00;57155.34;5045795;28;8893;-85
2023/06/15 09:10:09;;;;;;;;;2.00;2.00;;;;;-146.67;100.00;57155.34;5032672;28;8809;-86
2023/06/15 09:12:43;;;;;;;;;0.00;0.00;;;;;-146.67;100.00;57155.34;5044527;28;10240;-85
2023/06/15 09:15:12;;;;;;;;;0.00;0.00;;;;;-146.67;100.00;57155.34;5045408;28;8746;-85
2023/06/15 09:17:38;;;;;;;;;0.00;0.00;;;;;-146.67;100.00;57155.34;5035733;28;8790;-86
2023/06/15 09:20:05;;;;;;;;;0.00;0.00;;;;;-146.67;100.00;57155.34;5027579;28;8787;-86
2023/06/15 09:22:31;;;;;;;;;0.00;0.00;;;;;-146.67;100.00;57155.34;5045767;28;8797;-85
2023/06/15 09:24:56;;;;;;;;;0.00;0.00;;;;;-146.67;100.00;57155.34;5044538;28;8950;-86
2023/06/15 09:27:22;;;;;;;;;0.00;0.00;;;;;-146.67;100.00;57155.34;5027453;28;8868;-85
2023/06/15 09:30:05;;;;;;;;;0.00;0.00;;;;;-146.67;100.00;57155.34;5030511;28;9620;-85
2023/06/15 09:32:30;;;;;;;;;0.00;0.00;;;;;-146.67;100.00;57155.34;5045377;28;8770;-85
2023/06/15 09:34:58;;;;;;;;;0.00;0.00;;;;;-146.67;100.00;57155.34;5044136;28;9397;-85
2023/06/15 09:37:25;;;;;;;;;0.00;0.00;;;;;-146.67;100.00;57155.34;5027531;28;8799;-86
2023/06/15 09:39:52;;;;;;;;;0.00;0.00;;;;;-146.67;100.00;57155.34;5027040;28;8930;-85
2023/06/15 09:42:18;;;;;;;;;0.00;0.00;;;;;-146.67;100.00;57155.34;5026671;28;10521;-85
2023/06/15 09:44:45;;;;;;;;;0.00;0.00;;;;;-146.67;100.00;57155.34;5027520;28;8992;-85
2023/06/15 09:47:17;;;;;;;;;0.00;0.00;;;;;-146.67;100.00;57155.34;5044860;28;8751;-86
2023/06/15 09:49:44;;;;;;;;;0.00;0.00;;;;;-146.67;100.00;57155.34;5045389;28;8747;-86
2023/06/15 09:52:13;;;;;;;;;0.00;0.00;;;;;-146.67;100.00;57155.34;5045149;28;8744;-86
2023/06/15 09:54:39;;;;;;;;;0.00;0.00;;;;;-146.67;100.00;57155.34;5027516;28;8755;-86
2023/06/15 09:57:05;;;;;;;;;0.00;0.00;;;;;-146.67;100.00;57155.34;5045202;28;8838;-85
2023/06/15 09:59:31;;;;;;;;;0.00;0.00;;;;;-146.67;100.00;57155.34;5026485;28;8774;-85
2023/06/15 10:01:59;;;;;;;;;0.00;0.00;;;;;-146.67;100.00;57155.34;5025455;28;11059;-85
2023/06/15 10:04:32;;;;;;;;;0.00;0.00;;;;;-146.67;100.00;57155.34;5044762;28;8811;-85
2023/06/15 10:07:03;;;;;;;;;0.00;0.00;;;;;-146.67;100.00;57155.34;5045150;28;8809;-85
2023/06/15 10:09:35;;;;;;;;;0.00;0.00;;;;;-146.67;100.00;57155.34;5026715;28;8808;-85
2023/06/15 10:12:07;;;;;;;;;0.00;0.00;;;;;-146.67;100.00;57155.34;5026934;28;10119;-85
2023/06/15 10:14:43;;;;;;;;;0.00;0.00;;;;;-146.67;100.00;57155.34;5027552;28;8767;-85
2023/06/15 10:17:11;;;;;;;;;0.00;0.00;;;;;-146.67;100.00;57155.34;5026658;28;8779;-85
2023/06/15 10:19:42;;;;;;;;;0.00;0.00;;;;;-146.67;100.00;57155.34;5043478;28;8798;-85
2023/06/15 10:22:15;;;;;;;;;0.00;0.00;;;;;-146.67;100.00;57155.34;5044824;28;8832;-85
2023/06/15 10:24:43;;;;;;;;;0.00;0.00;;;;;-146.67;100.00;57155.34;5043785;28;8813;-85
2023/06/15 10:27:09;;;;;;;;;0.00;0.00;;;;;-146.67;100.00;57155.34;5044964;28;8807;-85
2023/06/15 10:29:54;;;;;;;;;0.00;0.00;;;;;-146.67;100.00;57155.34;5026386;28;8769;-85
2023/06/15 10:32:39;;;;;;;;;0.00;0.00;;;;;-146.67;100.00;57155.34;5044390;28;8808;-86
2023/06/15 10:35:12;;;;;;;;;0.00;0.00;;;;;-146.67;100.00;57155.34;5043654;28;8790;-85
2023/06/15 10:37:48;;;;;;;;;0.00;0.00;;;;;-146.67;100.00;57155.34;5043359;28;8746;-85
2023/06/15 10:40:20;;;;;;;;;0.00;0.00;;;;;-146.67;100.00;57155.34;5043036;28;8813;-86
2023/06/15 10:42:49;;;;;;;;;0.00;0.00;;;;;-146.67;100.00;57155.34;5042589;28;10133;-85
2023/06/15 10:45:32;;;;;;;;;0.00;0.00;;;;;-146.67;100.00;57155.34;5043543;28;8896;-86
2023/06/15 10:48:00;;;;;;;;;0.00;0.00;;;;;-146.67;100.00;57155.34;5043113;28;8890;-85
2023/06/15 10:50:27;;;;;;;;;0.00;0.00;;;;;-146.67;100.00;57155.34;5043239;28;8850;-86
2023/06/15 10:52:54;;;;;;;;;0.00;0.00;;;;;-146.67;100.00;57155.34;5044387;28;8906;-87
2023/06/15 10:55:25;;;;;;;;;0.00;0.00;;;;;-146.67;100.00;57155.34;5044496;28;8766;-86
2023/06/15 10:58:15;;;;;;;;;0.00;0.00;;;;;-146.67;100.00;57155.34;5044168;28;8759;-86
2023/06/15 11:00:44;;;;;;;;;0.00;0.00;;;;;-146.67;100.00;57155.34;5013499;28;8824;-86
2023/06/15 11:03:35;;;;;;;;;0.00;0.00;;;;;-146.67;100.00;57155.34;5022938;28;9980;-86
2023/06/15 11:06:22;;;;;;;;;0.00;0.00;;;;;-146.67;100.00;57155.34;5023144;28;8758;-86
2023/06/15 11:08:50;;;;;;;;;0.00;0.00;;;;;-146.67;100.00;57155.34;5006045;28;8821;-85
2023/06/15 11:11:21;;;;;;;;;0.00;0.00;;;;;-146.67;100.00;57155.34;5005935;28;8794;-86
2023/06/15 11:14:00;;;;;;;;;0.00;0.00;;;;;-146.67;100.00;57155.34;5022461;28;10153;-85
2023/06/15 11:16:30;;;;;;;;;0.00;0.00;;;;;-146.67;100.00;57155.34;5006189;28;8746;-85